首页
METAR-TAF:

METAR-TAF

机场 :

大瀑布城, 蒙大拿州, 美国

纬度: 47-30N, 经度: 111-11W, 海拔: 1075米

当前天气观测

该预报发布于35分钟前的23:55 UTC
风速15节,风向
温度 13°C
湿度 41%
气压 1013 hPa
能見度: 16.1公里
少量云层高于7500英尺
多云层高于9000英尺

METAR: KGFA 202355Z AUTO 36015KT 10SM FEW075 BKN090 13/00 A2992 RMK AO2 SLP149 T01340001 10148 20103 $

时间: 18:30 (00:30 UTC)

预报

该预报发布于3小时和30分钟前的21:00 UTC
预报有效从20日的 21点(UTC)到 22日的 03点(UTC)
风速6节,风向多变
能见度10公里或以上
多云层高于5000英尺, 积雨云.
多云层高于8000英尺
小阵雨, 附近有雷暴
短暂存在
从 20日的 23点(UTC)到 21日的 02点(UTC)
能見度: 8000
多云层高于5000英尺, 积雨云.
阴天层高于8000英尺
雷暴, 小雨
成为
从 21日的 04点(UTC)到 21日的 05点(UTC)
风速6节,风向多变
能见度10公里或以上
散云层高于6000英尺
成为
从 21日的 17点(UTC)到 21日的 18点(UTC)
风速12节,风向西,有时为18节阵风
能见度10公里或以上
散云层高于6000英尺
散云层高于10000英尺
短暂存在
从 21日的 21点(UTC)到 22日的 01点(UTC)
多云层高于6000英尺
小阵雨
成为
从 22日的 02点(UTC)到 22日的 03点(UTC)
风速6节,风向多变
能见度10公里或以上
散云层高于6000英尺
多云层高于10000英尺

TAF: KGFA 202100Z 2021/2203 VRB06KT 9999 -SHRA VCTS BKN050CB BKN080 QNH2993INS TEMPO 2023/2102 8000 -TSRA BKN050CB OVC080 BECMG 2104/2105 VRB06KT 9999 NSW SCT060 QNH2991INS BECMG 2117/2118 28012G18KT 9999 SCT060 SCT100 QNH2984INS TEMPO 2121/2201 -SHRA BKN060 BECMG 2202/2203 VRB06KT 9999 SCT060 BKN100 QNH2985INS TX16/2121Z TN02/2112Z

超过4000个机场的气象观测和天气预报(METAR&TAF报告)。

可查询的气象台以黄色和红色小点在地图上表示。

将鼠标移到小点上方,可查看气象台名称。

然后点击查看天气观测和预报。

如需切换地图:点击带黑十字的绿色按钮放大地图;点击带横线的绿色按钮缩小地图;或者点击绿色箭头查看邻近地区的地图。


METAR-TAF: